Time;durP1;ratioP1;P1;durP2;ratioP2;P2;SDS_P1;SDS_P2;PMS_P1;PMS_P2;Temp;Humidity;BMP_temperature;BMP_pressure;BME280_temperature;BME280_humidity;BME280_pressure;Samples;Min_cycle;Max_cycle;Signal;HPM_P1;HPM_P2
2024/03/23 00:01:07;;;;;;;;;17.75;15.00;;;;;15.83;100.00;98190.50;6087477;28;96861;-54
2024/03/23 00:04:13;;;;;;;;;19.50;16.75;;;;;15.75;100.00;98171.22;6084377;28;96814;-53
2024/03/23 00:07:18;;;;;;;;;18.20;16.40;;;;;15.86;100.00;98178.28;6092977;28;96697;-54
2024/03/23 00:10:24;;;;;;;;;18.20;15.00;;;;;15.88;100.00;98178.84;6081383;28;96531;-56
2024/03/23 00:13:29;;;;;;;;;17.40;16.00;;;;;15.87;100.00;98169.03;6080665;28;96825;-56
2024/03/23 00:16:35;;;;;;;;;19.00;17.00;;;;;15.86;100.00;98164.69;6070347;28;97865;-56
2024/03/23 00:19:42;;;;;;;;;19.00;16.00;;;;;15.89;100.00;98164.13;6087517;28;96490;-56
2024/03/23 00:22:48;;;;;;;;;17.00;15.40;;;;;15.84;100.00;98154.06;6074053;28;96457;-56
2024/03/23 00:25:54;;;;;;;;;16.75;15.50;;;;;15.84;100.00;98145.09;6080038;28;96530;-56
2024/03/23 00:28:59;;;;;;;;;17.00;15.00;;;;;15.85;100.00;98138.59;6063923;28;97759;-56
2024/03/23 00:32:05;;;;;;;;;16.40;15.00;;;;;15.88;100.00;98144.28;6097981;28;96618;-56
2024/03/23 00:35:10;;;;;;;;;13.25;13.00;;;;;15.88;100.00;98125.25;6062060;28;96586;-56
2024/03/23 00:38:16;;;;;;;;;16.40;13.00;;;;;15.82;100.00;98139.16;6090530;28;96623;-56
2024/03/23 00:41:22;;;;;;;;;12.60;12.20;;;;;15.92;100.00;98125.53;6089201;28;96871;-56
2024/03/23 00:44:30;;;;;;;;;14.00;12.00;;;;;15.90;100.00;98125.00;6075764;28;96305;-56
2024/03/23 00:47:36;;;;;;;;;15.40;14.40;;;;;15.89;100.00;98129.59;6078402;28;97043;-56
2024/03/23 00:50:41;;;;;;;;;13.00;12.00;;;;;15.81;100.00;98104.91;6089445;28;96834;-56
2024/03/23 00:53:47;;;;;;;;;12.40;12.00;;;;;15.90;100.00;98116.84;6079317;28;96514;-56
2024/03/23 00:56:50;;;;;;;;;13.20;12.00;;;;;15.88;100.00;98117.09;6083150;28;96330;-56
2024/03/23 00:59:52;;;;;;;;;14.75;12.25;;;;;15.89;100.00;98116.03;6101305;28;96553;-56
2024/03/23 01:02:53;;;;;;;;;11.60;11.00;;;;;15.89;100.00;98115.19;6081326;28;97547;-56
2024/03/23 01:05:55;;;;;;;;;13.20;12.00;;;;;15.90;100.00;98112.22;6086825;28;97003;-56
2024/03/23 01:08:56;;;;;;;;;12.00;11.00;;;;;15.89;100.00;98107.88;6089221;28;96486;-56
2024/03/23 01:12:01;;;;;;;;;15.00;12.00;;;;;15.89;100.00;98101.59;6100014;28;96417;-56
2024/03/23 01:15:03;;;;;;;;;14.20;12.60;;;;;15.93;100.00;98105.44;6069721;28;96958;-56
2024/03/23 01:18:05;;;;;;;;;13.60;12.00;;;;;15.95;100.00;98098.63;6093949;28;97623;-56
2024/03/23 01:21:07;;;;;;;;;16.00;14.00;;;;;15.86;100.00;98089.41;6084229;28;96547;-56
2024/03/23 01:24:10;;;;;;;;;11.50;11.25;;;;;15.98;100.00;98094.50;6059338;28;99496;-56
2024/03/23 01:27:14;;;;;;;;;14.00;11.60;;;;;15.97;100.00;98084.75;6082673;28;97397;-56
2024/03/23 01:30:16;;;;;;;;;15.00;14.00;;;;;15.95;100.00;98086.91;6087783;28;96456;-56
2024/03/23 01:33:18;;;;;;;;;11.50;10.00;;;;;15.91;100.00;98083.94;6086711;28;96862;-56
2024/03/23 01:36:19;;;;;;;;;15.20;13.00;;;;;15.87;100.00;98088.31;6080622;28;96632;-56
2024/03/23 01:39:21;;;;;;;;;17.50;15.25;;;;;15.85;100.00;98086.94;6078595;28;97278;-56
2024/03/23 01:42:24;;;;;;;;;15.60;15.00;;;;;15.67;100.00;98053.03;6080910;28;96729;-56
2024/03/23 01:45:26;;;;;;;;;15.00;14.00;;;;;15.77;100.00;98074.75;6067262;28;96918;-56
2024/03/23 01:48:28;;;;;;;;;13.20;11.80;;;;;15.74;100.00;98078.00;6093437;28;96564;-56
2024/03/23 01:51:30;;;;;;;;;14.60;14.00;;;;;15.71;100.00;98073.13;6079101;28;96987;-56
2024/03/23 01:54:32;;;;;;;;;16.00;14.00;;;;;15.70;100.00;98071.47;6087839;28;99209;-56
2024/03/23 01:57:35;;;;;;;;;13.75;13.00;;;;;15.68;100.00;98070.97;6083187;28;96917;-56
2024/03/23 02:00:37;;;;;;;;;14.50;13.75;;;;;15.66;100.00;98083.19;6082074;28;96918;-58
2024/03/23 02:03:38;;;;;;;;;16.40;13.40;;;;;15.63;100.00;98067.44;6131468;23;96410;-56
2024/03/23 02:06:41;;;;;;;;;14.25;14.00;;;;;15.62;100.00;98076.66;6130371;28;96381;-56
2024/03/23 02:09:43;;;;;;;;;16.25;14.00;;;;;15.58;100.00;98071.78;6128892;28;97129;-56
2024/03/23 02:12:47;;;;;;;;;17.00;16.50;;;;;15.53;100.00;98068.25;6113690;28;96641;-56
2024/03/23 02:15:48;;;;;;;;;19.40;17.80;;;;;15.44;100.00;98065.22;6125807;28;96729;-56
2024/03/23 02:18:50;;;;;;;;;20.00;18.00;;;;;15.44;100.00;98048.94;6131720;28;96330;-56
2024/03/23 02:21:51;;;;;;;;;20.00;18.00;;;;;15.36;100.00;98041.34;6097988;28;96283;-56
2024/03/23 02:24:55;;;;;;;;;20.00;19.00;;;;;15.33;100.00;98051.94;6097803;28;96708;-56
2024/03/23 02:27:56;;;;;;;;;20.60;18.00;;;;;15.29;100.00;98048.97;6097271;28;96807;-56
2024/03/23 02:30:58;;;;;;;;;20.00;19.00;;;;;15.22;100.00;98042.97;6098181;28;97705;-56
2024/03/23 02:33:59;;;;;;;;;28.00;24.20;;;;;15.07;100.00;98032.94;6106019;28;96799;-56
2024/03/23 02:37:01;;;;;;;;;23.25;21.00;;;;;15.06;100.00;98034.00;6101503;28;96975;-56
2024/03/23 02:40:05;;;;;;;;;24.75;21.50;;;;;15.04;100.00;98036.19;6102373;28;96734;-56
2024/03/23 02:43:07;;;;;;;;;30.20;26.60;;;;;15.03;100.00;98033.75;6105469;28;97238;-56
2024/03/23 02:46:09;;;;;;;;;31.40;24.20;;;;;15.02;100.00;98032.94;6100742;28;96358;-56
2024/03/23 02:49:10;;;;;;;;;26.25;23.00;;;;;15.02;100.00;98032.94;6086439;28;96540;-56
2024/03/23 02:52:12;;;;;;;;;25.00;22.00;;;;;15.00;100.00;98039.72;6092923;28;96350;-56
2024/03/23 02:55:15;;;;;;;;;38.20;33.20;;;;;14.97;100.00;98027.50;6089799;28;97187;-56
2024/03/23 02:58:17;;;;;;;;;37.00;32.80;;;;;14.87;100.00;98024.78;6086174;28;96395;-56
2024/03/23 03:01:19;;;;;;;;;32.00;29.40;;;;;14.74;100.00;98001.72;6095572;28;97539;-56
2024/03/23 03:04:21;;;;;;;;;34.00;30.00;;;;;14.87;100.00;98026.66;6081431;28;97336;-56
2024/03/23 03:07:23;;;;;;;;;32.00;28.00;;;;;14.86;100.00;98023.13;6093798;28;96346;-56
2024/03/23 03:10:25;;;;;;;;;26.00;24.40;;;;;14.84;100.00;98022.63;6093685;28;96368;-55
2024/03/23 03:13:28;;;;;;;;;28.00;26.00;;;;;14.85;100.00;98020.72;6115717;28;96313;-57
2024/03/23 03:16:30;;;;;;;;;35.00;30.00;;;;;14.84;100.00;98019.91;6115524;28;96426;-56
2024/03/23 03:19:32;;;;;;;;;31.00;27.40;;;;;14.82;100.00;98013.09;6100919;28;96631;-56
2024/03/23 03:22:34;;;;;;;;;30.00;27.00;;;;;14.78;100.00;98001.16;6119579;28;97041;-56
2024/03/23 03:25:37;;;;;;;;;41.00;33.00;;;;;14.60;100.00;97976.19;6124389;28;96581;-56
2024/03/23 03:28:39;;;;;;;;;39.50;31.50;;;;;14.58;100.00;97982.97;6117394;28;96338;-56
2024/03/23 03:31:40;;;;;;;;;34.00;30.00;;;;;14.67;100.00;97990.31;6119942;28;96751;-56
2024/03/23 03:34:42;;;;;;;;;28.33;26.00;;;;;14.55;100.00;97965.34;6128920;28;96401;-56
2024/03/23 03:37:44;;;;;;;;;31.20;27.60;;;;;14.62;100.00;97982.16;6121253;28;96274;-56
2024/03/23 03:40:47;;;;;;;;;33.50;30.00;;;;;14.63;100.00;97978.38;6117383;28;96362;-56
2024/03/23 03:43:49;;;;;;;;;38.00;32.00;;;;;14.61;100.00;97985.94;6117817;28;96297;-56
2024/03/23 03:46:51;;;;;;;;;40.25;33.50;;;;;14.58;100.00;97982.97;6116869;28;96945;-56
2024/03/23 03:49:52;;;;;;;;;34.20;30.00;;;;;14.58;100.00;97978.34;6094687;28;96708;-56
2024/03/23 03:52:54;;;;;;;;;35.00;30.00;;;;;14.50;100.00;97959.91;6124949;28;96472;-56
2024/03/23 03:56:01;;;;;;;;;35.00;31.60;;;;;14.52;100.00;97965.88;6121670;28;96396;-56
2024/03/23 03:59:04;;;;;;;;;40.20;32.40;;;;;14.44;100.00;97955.56;6116570;28;96566;-55
2024/03/23 04:02:05;;;;;;;;;38.20;33.60;;;;;14.45;100.00;97956.38;6124417;28;96451;-55
2024/03/23 04:05:08;;;;;;;;;43.40;34.80;;;;;14.41;100.00;97958.81;6098467;28;98640;-56
2024/03/23 04:08:09;;;;;;;;;41.60;33.60;;;;;14.42;100.00;97954.19;6126177;28;96288;-56
2024/03/23 04:11:13;;;;;;;;;42.20;33.00;;;;;14.45;100.00;97954.47;6122853;28;96416;-56
2024/03/23 04:14:16;;;;;;;;;39.75;33.00;;;;;14.43;100.00;97955.81;6116132;28;96942;-56
2024/03/23 04:17:18;;;;;;;;;39.20;32.20;;;;;14.45;100.00;97954.47;6117475;28;96250;-56
2024/03/23 04:20:19;;;;;;;;;40.40;34.40;;;;;14.39;100.00;97944.69;6116260;28;96339;-54
2024/03/23 04:23:21;;;;;;;;;40.80;34.80;;;;;14.49;100.00;97955.56;6107424;28;96833;-54
2024/03/23 04:26:25;;;;;;;;;39.75;33.25;;;;;14.48;100.00;97956.66;6111710;28;96991;-53
2024/03/23 04:29:26;;;;;;;;;40.20;33.00;;;;;14.53;100.00;97956.66;6111140;28;96508;-54
2024/03/23 04:32:29;;;;;;;;;39.00;32.50;;;;;14.54;100.00;97958.28;6113439;28;96523;-53
2024/03/23 04:35:30;;;;;;;;;35.40;30.00;;;;;14.58;100.00;97955.84;6095146;28;96738;-54
2024/03/23 04:38:32;;;;;;;;;37.00;33.00;;;;;14.50;100.00;97940.94;6078110;28;98456;-54
2024/03/23 04:41:35;;;;;;;;;35.20;31.40;;;;;14.55;100.00;97949.06;6104223;28;97516;-53
2024/03/23 04:44:38;;;;;;;;;34.60;30.00;;;;;14.57;100.00;97948.78;6094814;28;96344;-53
2024/03/23 04:47:40;;;;;;;;;36.00;31.50;;;;;14.57;100.00;97938.75;6110061;28;96797;-54
2024/03/23 04:50:42;;;;;;;;;37.00;32.00;;;;;14.61;100.00;97941.75;6109341;28;96945;-53
2024/03/23 04:53:44;;;;;;;;;39.75;33.00;;;;;14.61;100.00;97936.34;6110933;28;96387;-53
2024/03/23 04:56:48;;;;;;;;;35.60;32.00;;;;;14.61;100.00;97923.56;6109915;28;96301;-54
2024/03/23 04:59:49;;;;;;;;;36.00;31.80;;;;;14.61;100.00;97918.13;6109058;28;96375;-53
2024/03/23 05:02:52;;;;;;;;;37.60;32.00;;;;;14.61;100.00;97931.69;6109714;28;96338;-56
2024/03/23 05:05:54;;;;;;;;;37.20;32.00;;;;;14.51;100.00;97901.88;6093587;28;97529;-54
2024/03/23 05:08:56;;;;;;;;;34.60;30.20;;;;;14.55;100.00;97905.69;6110713;28;96768;-54
2024/03/23 05:12:00;;;;;;;;;34.00;31.00;;;;;14.64;100.00;97916.78;6109211;28;96816;-54
2024/03/23 05:15:03;;;;;;;;;31.40;30.00;;;;;14.58;100.00;97912.44;6108318;28;96434;-54
2024/03/23 05:18:05;;;;;;;;;36.60;30.00;;;;;14.63;100.00;97918.69;6081662;28;99156;-54
2024/03/23 05:21:07;;;;;;;;;33.67;31.00;;;;;14.63;100.00;97905.13;6097168;28;98414;-54
2024/03/23 05:24:09;;;;;;;;;39.00;32.00;;;;;14.65;100.00;97899.44;6094777;28;96685;-54
2024/03/23 05:27:13;;;;;;;;;34.00;30.00;;;;;14.60;100.00;97907.56;6107353;28;96273;-53
2024/03/23 05:30:14;;;;;;;;;33.00;30.00;;;;;14.52;100.00;97899.97;6093051;28;96594;-56
2024/03/23 05:33:16;;;;;;;;;34.00;30.00;;;;;14.42;100.00;97887.22;6103778;28;96490;-56
2024/03/23 05:36:18;;;;;;;;;34.75;30.00;;;;;14.55;100.00;97894.81;6118913;28;96362;-56
2024/03/23 05:39:22;;;;;;;;;36.00;32.00;;;;;14.60;100.00;97885.88;6116171;28;96285;-56
2024/03/23 05:42:24;;;;;;;;;30.25;28.00;;;;;14.63;100.00;97891.56;6114820;28;96806;-56
2024/03/23 05:45:27;;;;;;;;;35.60;29.00;;;;;14.67;100.00;97889.09;6117438;28;98149;-56
2024/03/23 05:48:30;;;;;;;;;35.40;29.40;;;;;14.70;100.00;97891.28;6114211;28;97057;-56
2024/03/23 05:51:32;;;;;;;;;32.00;28.50;;;;;14.75;100.00;97885.88;6114934;28;96538;-56
2024/03/23 05:54:33;;;;;;;;;30.50;28.75;;;;;14.79;100.00;97875.28;6115572;28;96505;-56
2024/03/23 05:57:37;;;;;;;;;34.80;30.00;;;;;14.61;100.00;97868.53;6106156;28;96638;-56
2024/03/23 06:00:38;;;;;;;;;31.40;29.00;;;;;14.71;100.00;97872.00;6116029;28;96425;-55
2024/03/23 06:03:40;;;;;;;;;31.40;27.00;;;;;14.63;100.00;97841.91;6110320;28;96347;-56
2024/03/23 06:06:42;;;;;;;;;34.00;28.75;;;;;14.80;100.00;97874.19;6115714;28;96157;-56
2024/03/23 06:09:45;;;;;;;;;29.50;27.50;;;;;14.84;100.00;97876.09;6113997;28;96346;-56
2024/03/23 06:12:48;;;;;;;;;32.60;27.80;;;;;14.91;100.00;97865.75;6110002;28;96314;-56
2024/03/23 06:15:51;;;;;;;;;32.20;28.60;;;;;15.00;100.00;97864.09;6101868;28;96889;-56
2024/03/23 06:18:52;;;;;;;;;32.00;26.00;;;;;15.08;100.00;97854.59;6113554;28;96592;-56
2024/03/23 06:21:55;;;;;;;;;29.40;26.00;;;;;15.18;100.00;97858.09;6113858;28;96395;-56
2024/03/23 06:24:57;;;;;;;;;23.67;22.33;;;;;15.29;100.00;97855.34;6109321;28;96434;-56
2024/03/23 06:28:01;;;;;;;;;28.00;26.00;;;;;15.26;100.00;97855.88;6116503;28;96412;-56
2024/03/23 06:31:03;;;;;;;;;36.40;30.00;;;;;15.10;100.00;97836.94;6122190;28;97992;-56
2024/03/23 06:34:06;;;;;;;;;36.40;32.00;;;;;15.05;100.00;97820.66;6113900;28;96309;-56
2024/03/23 06:37:09;;;;;;;;;36.40;30.40;;;;;15.30;100.00;97846.09;6114227;28;97374;-56
2024/03/23 06:40:11;;;;;;;;;37.00;29.60;;;;;15.35;100.00;97843.34;6110881;28;96404;-56
2024/03/23 06:43:14;;;;;;;;;30.50;28.00;;;;;15.36;100.00;97834.94;6112915;28;96483;-56
2024/03/23 06:46:16;;;;;;;;;29.60;26.60;;;;;15.50;100.00;97846.00;6095279;28;96654;-56
2024/03/23 06:49:18;;;;;;;;;27.60;24.00;;;;;15.55;100.00;97852.28;6110117;28;96322;-56
2024/03/23 06:52:20;;;;;;;;;24.40;23.00;;;;;15.66;100.00;97850.31;6110789;28;96379;-56
2024/03/23 06:55:24;;;;;;;;;27.40;24.40;;;;;15.72;100.00;97849.22;6113304;28;96299;-56
2024/03/23 06:58:27;;;;;;;;;24.00;22.20;;;;;15.85;100.00;97845.06;6109570;28;96413;-56
2024/03/23 07:01:29;;;;;;;;;24.20;22.40;;;;;15.96;100.00;97852.06;6118439;28;96468;-56
2024/03/23 07:04:30;;;;;;;;;26.25;23.00;;;;;16.09;100.00;97835.13;6110585;28;96416;-56
2024/03/23 07:07:33;;;;;;;;;27.60;24.60;;;;;16.24;100.00;97834.19;6106266;28;96411;-56
2024/03/23 07:10:34;;;;;;;;;22.00;18.75;;;;;16.33;100.00;97844.19;6112244;28;96404;-56
2024/03/23 07:13:39;;;;;;;;;24.60;21.00;;;;;16.43;100.00;97838.66;6111763;28;96581;-56
2024/03/23 07:16:40;;;;;;;;;25.00;23.00;;;;;16.56;100.00;97825.50;6100179;28;99350;-56
2024/03/23 07:19:42;;;;;;;;;24.60;23.00;;;;;16.68;100.00;97834.94;6116392;28;96311;-56
2024/03/23 07:22:45;;;;;;;;;28.25;25.50;;;;;16.80;100.00;97831.84;6099598;28;97151;-56
2024/03/23 07:25:57;;;;;;;;;27.00;24.00;;;;;17.14;100.00;97831.75;6119287;28;96806;-56
2024/03/23 07:29:00;;;;;;;;;31.80;28.80;;;;;17.55;100.00;97835.59;6115555;28;96929;-56
2024/03/23 07:32:02;;;;;;;;;30.00;28.00;;;;;17.87;100.00;97829.50;6110166;28;96869;-56
2024/03/23 07:35:04;;;;;;;;;32.40;28.40;;;;;18.04;100.00;97826.22;6105796;28;96445;-56
2024/03/23 07:38:07;;;;;;;;;29.25;28.00;;;;;18.29;100.00;97830.47;6066481;28;96864;-56
2024/03/23 07:41:11;;;;;;;;;32.00;29.50;;;;;18.44;100.00;97819.31;6090753;28;98646;-56
2024/03/23 07:44:13;;;;;;;;;35.75;30.75;;;;;18.58;100.00;97817.47;6108965;28;96418;-56
2024/03/23 07:47:15;;;;;;;;;31.50;28.00;;;;;18.67;100.00;97812.16;6109281;28;96993;-56
2024/03/23 07:50:17;;;;;;;;;30.40;26.60;;;;;18.79;100.00;97802.38;6109833;28;96484;-56
2024/03/23 07:53:19;;;;;;;;;33.00;28.00;;;;;19.05;100.00;97802.72;6109806;28;96384;-56
2024/03/23 07:56:23;;;;;;;;;28.25;27.25;;;;;19.35;100.00;97798.56;6107969;28;96968;-56
2024/03/23 07:59:26;;;;;;;;;34.60;29.00;;;;;19.79;100.00;97789.72;6109315;28;96518;-56
2024/03/23 08:02:28;;;;;;;;;32.80;29.60;;;;;19.95;100.00;97795.63;6109524;28;96479;-57
2024/03/23 08:05:29;;;;;;;;;27.00;26.60;;;;;19.98;100.00;97779.41;6109634;28;96506;-56
2024/03/23 08:08:31;;;;;;;;;30.80;27.80;;;;;19.66;100.00;97760.47;6094717;28;96519;-56
2024/03/23 08:11:34;;;;;;;;;32.20;29.20;;;;;19.59;100.00;97755.44;6109744;28;96307;-56
2024/03/23 08:14:37;;;;;;;;;30.40;27.40;;;;;19.75;100.00;97750.41;6103389;28;96300;-56
2024/03/23 08:17:39;;;;;;;;;29.75;27.75;;;;;20.23;100.00;97724.06;6086363;28;96634;-56
2024/03/23 08:20:41;;;;;;;;;26.20;25.00;;;;;20.92;100.00;97749.09;6111050;28;96421;-56
2024/03/23 08:23:43;;;;;;;;;27.20;25.60;;;;;21.56;100.00;97755.75;6100751;28;96317;-56
2024/03/23 08:26:46;;;;;;;;;24.25;21.25;;;;;22.09;100.00;97753.91;6096598;28;96274;-56
2024/03/23 08:29:48;;;;;;;;;22.80;20.80;;;;;22.25;100.00;97753.06;6111464;28;96364;-56
2024/03/23 08:32:50;;;;;;;;;26.00;23.25;;;;;22.26;100.00;97743.69;6112385;28;96296;-57
2024/03/23 08:35:55;;;;;;;;;14.40;13.40;;;;;22.04;100.00;97747.41;6111510;28;96376;-57
2024/03/23 08:38:57;;;;;;;;;23.00;22.00;;;;;21.82;100.00;97728.34;6112236;28;97081;-56
2024/03/23 08:41:58;;;;;;;;;14.25;12.25;;;;;21.64;100.00;97717.72;6114804;28;96367;-57
2024/03/23 08:45:02;;;;;;;;;12.00;9.60;;;;;21.42;96.62;97726.88;6111853;28;96281;-56
2024/03/23 08:48:04;;;;;;;;;11.00;10.00;;;;;21.37;98.75;97716.84;6123912;28;96695;-57
2024/03/23 08:51:09;;;;;;;;;15.60;13.60;;;;;21.34;98.47;97711.22;6108788;28;96675;-57
2024/03/23 08:54:10;;;;;;;;;9.00;9.00;;;;;21.46;100.00;97703.97;6109746;28;96401;-56
2024/03/23 08:57:12;;;;;;;;;11.00;9.40;;;;;21.49;97.66;97677.84;6111886;28;96336;-56
2024/03/23 09:00:15;;;;;;;;;11.00;11.00;;;;;21.74;97.51;97687.22;6114541;28;96785;-56
2024/03/23 09:03:17;;;;;;;;;11.00;10.00;;;;;22.27;93.84;97689.59;6113119;28;96294;-56
2024/03/23 09:06:18;;;;;;;;;10.40;10.40;;;;;23.09;86.18;97691.09;6117055;28;96367;-57
2024/03/23 09:09:21;;;;;;;;;10.00;10.00;;;;;25.28;80.50;97681.69;6120943;28;97040;-56
2024/03/23 09:12:23;;;;;;;;;11.50;10.00;;;;;25.78;73.46;97678.50;6097231;28;96371;-56
2024/03/23 09:15:26;;;;;;;;;11.60;11.00;;;;;25.56;70.70;97671.53;6095951;28;96328;-57
2024/03/23 09:18:28;;;;;;;;;9.00;8.00;;;;;24.97;71.50;97661.00;6092292;28;96301;-56
2024/03/23 09:21:30;;;;;;;;;8.80;8.00;;;;;24.47;72.96;97655.81;6094483;28;96557;-56
2024/03/23 09:24:32;;;;;;;;;10.80;10.20;;;;;24.11;75.88;97648.22;6111241;28;96561;-56
2024/03/23 09:27:34;;;;;;;;;13.40;11.00;;;;;23.84;77.34;97648.00;6100738;28;96667;-56
2024/03/23 09:30:42;;;;;;;;;12.50;11.50;;;;;23.58;78.77;97643.53;6097849;28;96678;-56
2024/03/23 09:33:43;;;;;;;;;9.00;8.00;;;;;23.41;77.26;97643.63;6088693;28;96557;-56
2024/03/23 09:36:45;;;;;;;;;9.60;8.00;;;;;23.41;75.32;97634.59;6099022;28;96276;-56
2024/03/23 09:39:47;;;;;;;;;8.00;7.50;;;;;23.38;70.58;97621.50;6093522;28;96260;-56
2024/03/23 09:42:51;;;;;;;;;8.20;6.00;;;;;23.32;68.45;97616.19;6099257;28;96439;-56
2024/03/23 09:45:55;;;;;;;;;8.40;7.40;;;;;23.40;69.81;97611.78;6099201;28;96864;-56
2024/03/23 09:48:58;;;;;;;;;6.20;6.20;;;;;23.33;66.40;97606.81;6099436;28;96780;-56
2024/03/23 09:52:00;;;;;;;;;9.00;8.00;;;;;23.32;65.88;97607.94;6099147;28;96635;-56
2024/03/23 09:55:03;;;;;;;;;8.00;7.00;;;;;23.18;65.63;97603.84;6099296;28;96344;-56
2024/03/23 09:58:06;;;;;;;;;7.00;6.00;;;;;23.12;64.35;97603.25;6099157;28;96429;-56
2024/03/23 10:01:09;;;;;;;;;8.00;7.00;;;;;23.26;64.82;97587.28;6099060;28;96393;-56
2024/03/23 10:04:12;;;;;;;;;7.00;7.00;;;;;23.57;64.38;97572.34;6082310;28;99552;-56
2024/03/23 10:07:15;;;;;;;;;6.00;5.60;;;;;24.14;62.80;97567.69;6098935;28;98070;-56
2024/03/23 10:10:17;;;;;;;;;7.60;7.00;;;;;24.59;60.23;97572.34;6098947;28;96826;-56
2024/03/23 10:13:26;;;;;;;;;8.40;7.00;;;;;24.95;56.69;97558.56;6098714;28;96357;-56
2024/03/23 10:16:29;;;;;;;;;7.50;7.00;;;;;25.81;55.63;97550.78;6097650;28;96432;-56
2024/03/23 10:19:31;;;;;;;;;5.75;5.75;;;;;26.69;50.74;97549.50;6098445;28;96342;-56
2024/03/23 10:22:38;;;;;;;;;6.50;6.00;;;;;27.89;47.66;97534.72;6109945;28;96260;-57
2024/03/23 10:25:40;;;;;;;;;5.00;5.00;;;;;29.70;41.18;97541.88;6109876;28;96833;-57
2024/03/23 10:28:52;;;;;;;;;6.20;6.20;;;;;30.20;39.77;97527.72;6108753;28;96283;-57
2024/03/23 10:32:08;;;;;;;;;8.40;8.00;;;;;32.34;39.52;97523.69;6109119;28;96368;-57
2024/03/23 10:35:18;;;;;;;;;7.00;7.00;;;;;34.24;34.08;97510.34;6109780;28;96542;-58
2024/03/23 10:38:21;;;;;;;;;8.00;8.00;;;;;35.89;32.08;97502.63;6110600;28;96300;-58
2024/03/23 10:41:26;;;;;;;;;8.00;7.00;;;;;36.66;30.73;97499.81;6090440;28;96253;-58
2024/03/23 10:44:30;;;;;;;;;5.25;5.25;;;;;35.77;28.39;97480.78;6105859;28;96368;-58
2024/03/23 10:47:35;;;;;;;;;7.00;7.00;;;;;36.35;29.99;97468.28;6107232;28;96194;-58
2024/03/23 10:50:37;;;;;;;;;6.00;5.00;;;;;36.40;29.19;97467.78;6093758;28;96660;-56
2024/03/23 10:53:39;;;;;;;;;6.00;6.00;;;;;36.62;28.51;97465.41;6109619;28;96251;-59
2024/03/23 10:56:41;;;;;;;;;7.00;6.80;;;;;36.50;28.14;97455.59;6107657;28;96256;-56
2024/03/23 10:59:45;;;;;;;;;7.00;7.00;;;;;35.27;27.58;97435.78;6108328;28;96278;-57
2024/03/23 11:02:49;;;;;;;;;5.20;5.20;;;;;36.03;28.76;97430.25;6108574;28;96381;-57
2024/03/23 11:05:51;;;;;;;;;7.00;6.00;;;;;35.76;28.19;97426.69;6110981;28;97840;-56
2024/03/23 11:08:53;;;;;;;;;8.00;7.00;;;;;34.88;28.74;97416.63;6110980;28;97314;-56
2024/03/23 11:11:54;;;;;;;;;9.00;8.20;;;;;34.41;30.27;97407.88;6109279;28;96374;-57
2024/03/23 11:14:59;;;;;;;;;7.00;7.00;;;;;34.94;30.45;97418.53;6100212;28;96374;-57
2024/03/23 11:18:08;;;;;;;;;6.00;6.00;;;;;35.00;29.71;97405.66;6100489;28;96482;-60
2024/03/23 11:21:10;;;;;;;;;7.00;6.00;;;;;35.41;29.07;97385.94;6104969;28;96398;-60
2024/03/23 11:24:15;;;;;;;;;7.00;6.50;;;;;36.16;29.68;97402.44;6109803;28;96384;-60
2024/03/23 11:27:17;;;;;;;;;6.00;5.50;;;;;37.00;27.71;97395.66;6115911;28;96787;-61
2024/03/23 11:30:21;;;;;;;;;6.00;4.60;;;;;38.31;27.39;97378.63;6098356;28;96738;-60
2024/03/23 11:33:25;;;;;;;;;6.00;5.25;;;;;39.29;26.04;97377.09;6094242;28;96616;-57
2024/03/23 11:36:26;;;;;;;;;7.00;7.00;;;;;39.84;24.97;97361.69;6093254;28;96918;-58
2024/03/23 11:39:29;;;;;;;;;6.00;6.00;;;;;40.46;25.31;97351.53;6091865;28;96996;-58
2024/03/23 11:42:30;;;;;;;;;5.00;5.00;;;;;40.55;24.85;97345.16;6097701;28;96972;-59
2024/03/23 11:45:36;;;;;;;;;5.00;5.00;;;;;39.62;24.67;97315.66;6097102;28;96546;-59
2024/03/23 11:48:39;;;;;;;;;7.00;6.00;;;;;38.64;25.81;97337.91;6097257;28;96727;-59
2024/03/23 11:51:41;;;;;;;;;5.60;5.60;;;;;37.32;26.79;97328.38;6094534;28;98073;-59
2024/03/23 11:54:43;;;;;;;;;7.00;7.00;;;;;36.29;27.29;97329.66;6090693;28;96661;-59
2024/03/23 11:57:44;;;;;;;;;5.00;5.00;;;;;35.53;28.60;97303.28;6090201;28;96499;-59
2024/03/23 12:00:52;;;;;;;;;6.00;5.60;;;;;35.05;28.96;97295.97;6089578;28;97691;-58
2024/03/23 12:03:55;;;;;;;;;6.00;6.00;;;;;36.24;28.58;97299.28;6093997;28;97039;-59
2024/03/23 12:07:11;;;;;;;;;7.00;6.00;;;;;36.84;27.83;97272.81;6092519;28;97409;-56
2024/03/23 12:10:14;;;;;;;;;6.75;6.00;;;;;36.94;27.21;97254.16;6103944;28;96392;-56
2024/03/23 12:13:17;;;;;;;;;5.00;5.00;;;;;37.46;27.42;97238.06;6083351;28;96415;-56
2024/03/23 12:16:20;;;;;;;;;4.50;4.00;;;;;37.72;27.00;97227.81;6094606;28;96656;-58
2024/03/23 12:19:23;;;;;;;;;4.00;4.00;;;;;37.22;26.35;97248.69;6095461;28;96732;-58
2024/03/23 12:22:25;;;;;;;;;4.00;4.00;;;;;36.31;27.54;97214.97;6089916;28;96609;-58
2024/03/23 12:25:27;;;;;;;;;3.00;3.00;;;;;35.68;27.72;97217.75;6089694;28;96451;-58
2024/03/23 12:28:29;;;;;;;;;6.00;4.00;;;;;35.22;28.67;97203.72;6092685;28;96995;-58
2024/03/23 12:31:30;;;;;;;;;5.00;4.60;;;;;34.40;28.91;97212.47;6088709;28;96475;-58
2024/03/23 12:34:34;;;;;;;;;5.00;4.00;;;;;33.53;30.49;97196.97;6087633;28;97027;-56
2024/03/23 12:37:35;;;;;;;;;5.00;4.40;;;;;32.47;30.65;97192.13;6084937;28;96290;-56
2024/03/23 12:40:37;;;;;;;;;4.00;4.00;;;;;31.67;31.92;97172.47;6090119;28;96900;-56
2024/03/23 12:43:39;;;;;;;;;4.40;4.40;;;;;31.04;33.77;97174.13;6090753;28;96669;-56
2024/03/23 12:46:41;;;;;;;;;4.00;4.00;;;;;30.63;34.79;97172.88;6093360;28;96903;-56
2024/03/23 12:49:46;;;;;;;;;3.00;3.00;;;;;30.30;35.27;97168.41;6094803;28;96272;-57
2024/03/23 12:52:49;;;;;;;;;4.00;4.00;;;;;30.24;35.49;97164.41;6082793;28;96524;-57
2024/03/23 12:55:50;;;;;;;;;3.00;2.60;;;;;30.23;35.32;97148.91;6098506;28;97959;-57
2024/03/23 12:58:53;;;;;;;;;3.00;3.00;;;;;30.30;36.19;97135.81;6098714;28;97045;-57
2024/03/23 13:01:55;;;;;;;;;4.60;4.00;;;;;30.29;36.91;97131.47;6098571;28;96231;-57
2024/03/23 13:04:59;;;;;;;;;3.20;3.20;;;;;30.11;37.21;97111.94;6099341;28;96683;-57
2024/03/23 13:08:00;;;;;;;;;4.60;4.00;;;;;29.69;37.78;97107.00;6100493;28;96739;-56
2024/03/23 13:11:03;;;;;;;;;3.00;3.00;;;;;29.31;38.14;97085.38;6100592;28;96765;-56
2024/03/23 13:14:06;;;;;;;;;5.80;5.00;;;;;29.07;42.13;97091.53;6101203;28;96364;-56
2024/03/23 13:17:07;;;;;;;;;6.00;6.00;;;;;28.84;42.57;97080.66;6100302;28;96479;-56
2024/03/23 13:20:14;;;;;;;;;7.00;7.00;;;;;28.55;44.42;97073.25;6100085;28;96693;-56
2024/03/23 13:23:15;;;;;;;;;8.00;7.00;;;;;27.99;45.40;97086.16;6099071;28;96411;-56
2024/03/23 13:26:18;;;;;;;;;5.60;5.00;;;;;27.68;46.78;97071.94;6100019;28;96597;-56
2024/03/23 13:29:19;;;;;;;;;6.40;6.00;;;;;26.97;48.51;97051.59;6099984;28;96834;-56
2024/03/23 13:32:22;;;;;;;;;5.25;5.00;;;;;26.87;50.07;97055.00;6099979;28;96562;-56
2024/03/23 13:35:24;;;;;;;;;6.00;6.00;;;;;26.57;50.75;97055.69;6100367;28;97151;-56
2024/03/23 13:38:27;;;;;;;;;6.00;6.00;;;;;26.28;50.74;97043.38;6100428;28;96949;-57
2024/03/23 13:41:28;;;;;;;;;7.40;6.40;;;;;25.94;52.21;97066.41;6100164;28;96245;-56
2024/03/23 13:44:30;;;;;;;;;6.00;6.00;;;;;25.78;53.59;97033.38;6102082;28;96347;-56
2024/03/23 13:47:32;;;;;;;;;8.20;6.80;;;;;25.82;52.17;97036.19;6095251;28;96823;-55
2024/03/23 13:50:35;;;;;;;;;6.60;6.60;;;;;25.58;52.39;97030.97;6101976;28;96332;-53
2024/03/23 13:53:38;;;;;;;;;5.00;4.60;;;;;25.83;52.70;97026.75;6110229;28;97005;-53
2024/03/23 13:56:39;;;;;;;;;6.00;6.00;;;;;26.09;54.96;97010.28;6112200;28;96792;-52
2024/03/23 13:59:41;;;;;;;;;5.80;5.80;;;;;26.27;52.42;97021.63;6128010;28;96478;-53